sensor_id;sensor_type;location;lat;lon;timestamp;pressure;altitude;pressure_sealevel;temperature;humidity
10587;BME280;5341;47.606;7.576;2024-02-15T00:01:23;99364.13;;;11.62;65.44
10587;BME280;5341;47.606;7.576;2024-02-15T00:03:50;99366.78;;;11.62;66.07
10587;BME280;5341;47.606;7.576;2024-02-15T00:06:17;99364.28;;;11.60;65.67
10587;BME280;5341;47.606;7.576;2024-02-15T00:08:44;99365.31;;;11.59;65.35
10587;BME280;5341;47.606;7.576;2024-02-15T00:11:12;99360.13;;;11.58;65.97
10587;BME280;5341;47.606;7.576;2024-02-15T00:13:39;99360.31;;;11.56;65.84
10587;BME280;5341;47.606;7.576;2024-02-15T00:16:07;99359.66;;;11.54;65.41
10587;BME280;5341;47.606;7.576;2024-02-15T00:18:35;99360.66;;;11.53;65.34
10587;BME280;5341;47.606;7.576;2024-02-15T00:21:04;99355.47;;;11.52;65.88
10587;BME280;5341;47.606;7.576;2024-02-15T00:23:31;99357.66;;;11.48;65.77
10587;BME280;5341;47.606;7.576;2024-02-15T00:25:58;99363.84;;;11.49;65.40
10587;BME280;5341;47.606;7.576;2024-02-15T00:28:26;99366.69;;;11.47;65.86
10587;BME280;5341;47.606;7.576;2024-02-15T00:30:53;99357.81;;;11.47;65.94
10587;BME280;5341;47.606;7.576;2024-02-15T00:33:20;99353.47;;;11.45;65.26
10587;BME280;5341;47.606;7.576;2024-02-15T00:35:49;99365.19;;;11.44;66.14
10587;BME280;5341;47.606;7.576;2024-02-15T00:38:17;99352.00;;;11.43;65.38
10587;BME280;5341;47.606;7.576;2024-02-15T00:40:44;99350.31;;;11.42;65.52
10587;BME280;5341;47.606;7.576;2024-02-15T00:43:12;99354.66;;;11.43;65.49
10587;BME280;5341;47.606;7.576;2024-02-15T00:45:40;99356.69;;;11.41;65.88
10587;BME280;5341;47.606;7.576;2024-02-15T00:48:07;99357.69;;;11.40;65.78
10587;BME280;5341;47.606;7.576;2024-02-15T00:50:35;99355.16;;;11.38;65.46
10587;BME280;5341;47.606;7.576;2024-02-15T00:53:04;99358.03;;;11.37;65.56
10587;BME280;5341;47.606;7.576;2024-02-15T00:55:32;99354.69;;;11.35;65.55
10587;BME280;5341;47.606;7.576;2024-02-15T00:57:59;99352.19;;;11.33;65.70
10587;BME280;5341;47.606;7.576;2024-02-15T01:00:26;99356.88;;;11.31;65.87
10587;BME280;5341;47.606;7.576;2024-02-15T01:02:54;99354.38;;;11.30;65.11
10587;BME280;5341;47.606;7.576;2024-02-15T01:05:21;99355.38;;;11.29;65.28
10587;BME280;5341;47.606;7.576;2024-02-15T01:07:50;99353.88;;;11.26;65.81
10587;BME280;5341;47.606;7.576;2024-02-15T01:10:19;99349.69;;;11.24;65.17
10587;BME280;5341;47.606;7.576;2024-02-15T01:12:46;99343.69;;;11.22;65.74
10587;BME280;5341;47.606;7.576;2024-02-15T01:15:14;99348.38;;;11.20;65.53
10587;BME280;5341;47.606;7.576;2024-02-15T01:17:43;99351.22;;;11.18;65.58
10587;BME280;5341;47.606;7.576;2024-02-15T01:20:11;99346.88;;;11.17;65.44
10587;BME280;5341;47.606;7.576;2024-02-15T01:22:39;99348.06;;;11.14;65.50
10587;BME280;5341;47.606;7.576;2024-02-15T01:25:06;99352.72;;;11.12;65.04
10587;BME280;5341;47.606;7.576;2024-02-15T01:27:35;99349.41;;;11.10;64.98
10587;BME280;5341;47.606;7.576;2024-02-15T01:30:03;99338.88;;;11.09;65.61
10587;BME280;5341;47.606;7.576;2024-02-15T01:32:31;99338.03;;;11.08;65.28
10587;BME280;5341;47.606;7.576;2024-02-15T01:34:58;99340.06;;;11.06;65.14
10587;BME280;5341;47.606;7.576;2024-02-15T01:37:25;99342.91;;;11.05;65.21
10587;BME280;5341;47.606;7.576;2024-02-15T01:39:53;99341.22;;;11.04;65.11
10587;BME280;5341;47.606;7.576;2024-02-15T01:42:20;99342.25;;;11.03;65.24
10587;BME280;5341;47.606;7.576;2024-02-15T01:44:49;99341.56;;;11.01;65.83
10587;BME280;5341;47.606;7.576;2024-02-15T01:47:18;99334.53;;;11.00;65.17
10587;BME280;5341;47.606;7.576;2024-02-15T01:49:47;99336.53;;;10.98;65.32
10587;BME280;5341;47.606;7.576;2024-02-15T01:52:15;99334.88;;;10.97;65.53
10587;BME280;5341;47.606;7.576;2024-02-15T01:54:44;99329.69;;;10.95;65.19
10587;BME280;5341;47.606;7.576;2024-02-15T01:57:12;99327.19;;;10.94;65.40
10587;BME280;5341;47.606;7.576;2024-02-15T01:59:40;99324.53;;;10.94;65.41
10587;BME280;5341;47.606;7.576;2024-02-15T02:02:11;99329.88;;;10.94;65.28
10587;BME280;5341;47.606;7.576;2024-02-15T02:04:40;99327.38;;;10.92;65.01
10587;BME280;5341;47.606;7.576;2024-02-15T02:07:08;99334.72;;;10.90;64.94
10587;BME280;5341;47.606;7.576;2024-02-15T02:09:36;99325.84;;;10.90;64.81
10587;BME280;5341;47.606;7.576;2024-02-15T02:12:04;99328.88;;;10.86;65.13
10587;BME280;5341;47.606;7.576;2024-02-15T02:14:33;99321.84;;;10.85;65.19
10587;BME280;5341;47.606;7.576;2024-02-15T02:17:12;99327.38;;;10.84;64.90
10587;BME280;5341;47.606;7.576;2024-02-15T02:19:40;99321.53;;;10.80;64.77
10587;BME280;5341;47.606;7.576;2024-02-15T02:22:09;99325.22;;;10.79;65.02
10587;BME280;5341;47.606;7.576;2024-02-15T02:27:15;99316.69;;;10.76;65.42
10587;BME280;5341;47.606;7.576;2024-02-15T02:29:43;99321.38;;;10.74;64.53
10587;BME280;5341;47.606;7.576;2024-02-15T02:32:12;99313.34;;;10.74;64.60
10587;BME280;5341;47.606;7.576;2024-02-15T02:34:39;99308.16;;;10.72;65.23
10587;BME280;5341;47.606;7.576;2024-02-15T02:37:07;99304.84;;;10.70;64.50
10587;BME280;5341;47.606;7.576;2024-02-15T02:39:34;99308.53;;;10.69;64.83
10587;BME280;5341;47.606;7.576;2024-02-15T02:42:02;99296.16;;;10.68;64.89
10587;BME280;5341;47.606;7.576;2024-02-15T02:44:31;99296.31;;;10.67;65.07
10587;BME280;5341;47.606;7.576;2024-02-15T02:47:01;99300.84;;;10.66;65.10
10587;BME280;5341;47.606;7.576;2024-02-15T02:49:28;99296.63;;;10.64;64.84
10587;BME280;5341;47.606;7.576;2024-02-15T02:51:55;99292.28;;;10.63;65.11
10587;BME280;5341;47.606;7.576;2024-02-15T02:54:23;99282.59;;;10.62;65.39
10587;BME280;5341;47.606;7.576;2024-02-15T02:56:50;99279.09;;;10.61;64.75
10587;BME280;5341;47.606;7.576;2024-02-15T02:59:17;99286.47;;;10.59;64.44
10587;BME280;5341;47.606;7.576;2024-02-15T03:01:46;99286.63;;;10.57;64.64
10587;BME280;5341;47.606;7.576;2024-02-15T03:04:15;99281.47;;;10.56;64.82
10587;BME280;5341;47.606;7.576;2024-02-15T03:06:43;99286.97;;;10.54;64.99
10587;BME280;5341;47.606;7.576;2024-02-15T03:09:11;99278.25;;;10.52;64.82
10587;BME280;5341;47.606;7.576;2024-02-15T03:11:40;99275.75;;;10.51;64.14
10587;BME280;5341;47.606;7.576;2024-02-15T03:14:08;99288.47;;;10.49;64.77
10587;BME280;5341;47.606;7.576;2024-02-15T03:16:36;99277.94;;;10.47;64.78
10587;BME280;5341;47.606;7.576;2024-02-15T03:19:05;99279.13;;;10.45;64.45
10587;BME280;5341;47.606;7.576;2024-02-15T03:21:34;99282.81;;;10.44;64.64
10587;BME280;5341;47.606;7.576;2024-02-15T03:24:02;99273.25;;;10.41;64.75
10587;BME280;5341;47.606;7.576;2024-02-15T03:26:30;99274.28;;;10.40;64.63
10587;BME280;5341;47.606;7.576;2024-02-15T03:28:59;99264.59;;;10.39;64.64
10587;BME280;5341;47.606;7.576;2024-02-15T03:31:27;99269.09;;;10.39;64.77
10587;BME280;5341;47.606;7.576;2024-02-15T03:33:55;99272.13;;;10.36;64.43
10587;BME280;5341;47.606;7.576;2024-02-15T03:36:24;99267.78;;;10.35;64.64
10587;BME280;5341;47.606;7.576;2024-02-15T03:38:51;99262.59;;;10.33;64.93
10587;BME280;5341;47.606;7.576;2024-02-15T03:41:19;99273.47;;;10.32;64.31
10587;BME280;5341;47.606;7.576;2024-02-15T03:43:47;99273.63;;;10.30;64.76
10587;BME280;5341;47.606;7.576;2024-02-15T03:46:14;99274.59;;;10.29;64.71
10587;BME280;5341;47.606;7.576;2024-02-15T03:48:42;99266.75;;;10.27;64.70
10587;BME280;5341;47.606;7.576;2024-02-15T03:51:11;99276.78;;;10.25;64.53
10587;BME280;5341;47.606;7.576;2024-02-15T03:53:44;99277.78;;;10.24;64.14
10587;BME280;5341;47.606;7.576;2024-02-15T03:56:11;99273.44;;;10.23;64.57
10587;BME280;5341;47.606;7.576;2024-02-15T03:58:38;99276.28;;;10.22;64.21
10587;BME280;5341;47.606;7.576;2024-02-15T04:01:05;99269.41;;;10.19;64.64
10587;BME280;5341;47.606;7.576;2024-02-15T04:03:35;99267.75;;;10.18;64.13
10587;BME280;5341;47.606;7.576;2024-02-15T04:06:03;99270.56;;;10.17;64.38
10587;BME280;5341;47.606;7.576;2024-02-15T04:08:30;99277.91;;;10.15;64.74
10587;BME280;5341;47.606;7.576;2024-02-15T04:10:59;99281.59;;;10.14;63.93
10587;BME280;5341;47.606;7.576;2024-02-15T04:13:26;99288.78;;;10.13;64.20
10587;BME280;5341;47.606;7.576;2024-02-15T04:15:54;99278.25;;;10.12;64.00
10587;BME280;5341;47.606;7.576;2024-02-15T04:18:21;99273.91;;;10.11;64.42
10587;BME280;5341;47.606;7.576;2024-02-15T04:20:48;99272.44;;;10.08;64.45
10587;BME280;5341;47.606;7.576;2024-02-15T04:23:17;99268.91;;;10.08;64.38
10587;BME280;5341;47.606;7.576;2024-02-15T04:25:45;99266.25;;;10.08;64.20
10587;BME280;5341;47.606;7.576;2024-02-15T04:28:18;99270.75;;;10.07;64.13
10587;BME280;5341;47.606;7.576;2024-02-15T04:30:46;99269.91;;;10.07;64.62
10587;BME280;5341;47.606;7.576;2024-02-15T04:33:14;99269.91;;;10.07;64.38
10587;BME280;5341;47.606;7.576;2024-02-15T04:35:42;99269.09;;;10.06;64.31
10587;BME280;5341;47.606;7.576;2024-02-15T04:38:09;99259.38;;;10.05;64.34
10587;BME280;5341;47.606;7.576;2024-02-15T04:40:39;99261.22;;;10.05;64.15
10587;BME280;5341;47.606;7.576;2024-02-15T04:43:06;99261.38;;;10.03;64.07
10587;BME280;5341;47.606;7.576;2024-02-15T04:45:36;99264.88;;;10.04;64.28
10587;BME280;5341;47.606;7.576;2024-02-15T04:48:04;99257.03;;;10.02;64.30
10587;BME280;5341;47.606;7.576;2024-02-15T04:50:31;99256.38;;;10.00;64.25
10587;BME280;5341;47.606;7.576;2024-02-15T04:52:58;99250.19;;;9.99;64.32
10587;BME280;5341;47.606;7.576;2024-02-15T04:55:25;99229.84;;;9.98;63.78
10587;BME280;5341;47.606;7.576;2024-02-15T04:57:57;99238.84;;;9.97;63.96
10587;BME280;5341;47.606;7.576;2024-02-15T05:00:25;99228.16;;;9.97;64.12
10587;BME280;5341;47.606;7.576;2024-02-15T05:02:54;99229.84;;;9.98;64.50
10587;BME280;5341;47.606;7.576;2024-02-15T05:05:21;99229.00;;;9.98;64.53
10587;BME280;5341;47.606;7.576;2024-02-15T05:07:50;99219.97;;;9.99;64.41
10587;BME280;5341;47.606;7.576;2024-02-15T05:10:18;99219.16;;;9.98;64.68
10587;BME280;5341;47.606;7.576;2024-02-15T05:12:45;99223.66;;;9.98;64.62
10587;BME280;5341;47.606;7.576;2024-02-15T05:15:15;99225.31;;;9.99;64.83
10587;BME280;5341;47.606;7.576;2024-02-15T05:17:43;99225.31;;;9.99;64.59
10587;BME280;5341;47.606;7.576;2024-02-15T05:20:12;99221.81;;;9.98;64.26
10587;BME280;5341;47.606;7.576;2024-02-15T05:22:40;99207.63;;;9.98;64.33
10587;BME280;5341;47.606;7.576;2024-02-15T05:25:09;99210.28;;;9.98;64.50
10587;BME280;5341;47.606;7.576;2024-02-15T05:27:38;99210.28;;;9.98;64.73
10587;BME280;5341;47.606;7.576;2024-02-15T05:30:06;99198.59;;;9.99;64.76
10587;BME280;5341;47.606;7.576;2024-02-15T05:32:34;99194.94;;;10.00;65.11
10587;BME280;5341;47.606;7.576;2024-02-15T05:35:08;99191.41;;;9.99;65.20
10587;BME280;5341;47.606;7.576;2024-02-15T05:37:37;99195.75;;;10.01;64.94
10587;BME280;5341;47.606;7.576;2024-02-15T05:40:05;99197.59;;;10.00;65.16
10587;BME280;5341;47.606;7.576;2024-02-15T05:42:33;99191.41;;;9.99;64.81
10587;BME280;5341;47.606;7.576;2024-02-15T05:45:27;99186.91;;;10.00;64.80
10587;BME280;5341;47.606;7.576;2024-02-15T05:47:58;99188.09;;;9.97;64.73
10587;BME280;5341;47.606;7.576;2024-02-15T05:50:26;99196.94;;;9.98;64.77
10587;BME280;5341;47.606;7.576;2024-02-15T05:52:56;99186.41;;;9.96;64.72
10587;BME280;5341;47.606;7.576;2024-02-15T05:55:25;99191.75;;;9.96;64.91
10587;BME280;5341;47.606;7.576;2024-02-15T05:57:55;99188.25;;;9.96;64.84
10587;BME280;5341;47.606;7.576;2024-02-15T06:00:22;99188.25;;;9.96;65.05
10587;BME280;5341;47.606;7.576;2024-02-15T06:02:49;99185.75;;;9.94;64.88
10587;BME280;5341;47.606;7.576;2024-02-15T06:05:18;99184.94;;;9.94;65.17
10587;BME280;5341;47.606;7.576;2024-02-15T06:07:45;99176.91;;;9.94;65.08
10587;BME280;5341;47.606;7.576;2024-02-15T06:10:14;99177.06;;;9.92;64.38
10587;BME280;5341;47.606;7.576;2024-02-15T06:12:41;99172.53;;;9.93;64.94
10587;BME280;5341;47.606;7.576;2024-02-15T06:15:10;99170.88;;;9.92;64.96
10587;BME280;5341;47.606;7.576;2024-02-15T06:17:41;99161.84;;;9.93;64.68
10587;BME280;5341;47.606;7.576;2024-02-15T06:20:11;99163.69;;;9.92;64.85
10587;BME280;5341;47.606;7.576;2024-02-15T06:22:40;99166.38;;;9.92;65.08
10587;BME280;5341;47.606;7.576;2024-02-15T06:25:08;99161.84;;;9.93;65.08
10587;BME280;5341;47.606;7.576;2024-02-15T06:27:37;99161.03;;;9.92;65.11
10587;BME280;5341;47.606;7.576;2024-02-15T06:30:08;99157.53;;;9.92;64.91
10587;BME280;5341;47.606;7.576;2024-02-15T06:32:52;99162.03;;;9.91;64.89
10587;BME280;5341;47.606;7.576;2024-02-15T06:35:37;99161.19;;;9.91;64.91
10587;BME280;5341;47.606;7.576;2024-02-15T06:38:23;99159.69;;;9.88;64.73
10587;BME280;5341;47.606;7.576;2024-02-15T06:41:08;99164.03;;;9.89;65.12
10587;BME280;5341;47.606;7.576;2024-02-15T06:43:37;99157.69;;;9.90;65.54
10587;BME280;5341;47.606;7.576;2024-02-15T06:46:06;99155.84;;;9.91;65.23
10587;BME280;5341;47.606;7.576;2024-02-15T06:48:34;99163.03;;;9.90;64.47
10587;BME280;5341;47.606;7.576;2024-02-15T06:51:02;99162.19;;;9.90;65.06
10587;BME280;5341;47.606;7.576;2024-02-15T06:53:30;99158.69;;;9.89;65.33
10587;BME280;5341;47.606;7.576;2024-02-15T06:55:57;99156.84;;;9.90;65.21
10587;BME280;5341;47.606;7.576;2024-02-15T06:58:24;99155.19;;;9.89;64.78
10587;BME280;5341;47.606;7.576;2024-02-15T07:00:54;99148.84;;;9.90;65.54
10587;BME280;5341;47.606;7.576;2024-02-15T07:03:21;99147.00;;;9.90;65.49
10587;BME280;5341;47.606;7.576;2024-02-15T07:05:49;99145.00;;;9.92;65.30
10587;BME280;5341;47.606;7.576;2024-02-15T07:08:16;99147.53;;;9.94;65.11
10587;BME280;5341;47.606;7.576;2024-02-15T07:10:44;99142.00;;;9.95;65.69
10587;BME280;5341;47.606;7.576;2024-02-15T07:13:11;99142.66;;;9.97;65.37
10587;BME280;5341;47.606;7.576;2024-02-15T07:15:38;99140.66;;;9.99;65.15
10587;BME280;5341;47.606;7.576;2024-02-15T07:18:07;99133.47;;;10.00;65.46
10587;BME280;5341;47.606;7.576;2024-02-15T07:20:34;99140.47;;;10.01;65.88
10587;BME280;5341;47.606;7.576;2024-02-15T07:23:01;99134.78;;;10.04;65.90
10587;BME280;5341;47.606;7.576;2024-02-15T07:25:29;99133.66;;;10.07;65.64
10587;BME280;5341;47.606;7.576;2024-02-15T07:27:56;99130.78;;;10.08;65.92
10587;BME280;5341;47.606;7.576;2024-02-15T07:30:24;99139.47;;;10.10;66.01
10587;BME280;5341;47.606;7.576;2024-02-15T07:32:51;99138.47;;;10.11;66.46
10587;BME280;5341;47.606;7.576;2024-02-15T07:35:20;99131.09;;;10.13;65.83
10587;BME280;5341;47.606;7.576;2024-02-15T07:37:54;99132.59;;;10.16;66.41
10587;BME280;5341;47.606;7.576;2024-02-15T07:40:24;99127.06;;;10.17;66.33
10587;BME280;5341;47.606;7.576;2024-02-15T07:42:56;99127.78;;;10.19;66.30
10587;BME280;5341;47.606;7.576;2024-02-15T07:45:23;99126.75;;;10.20;66.29
10587;BME280;5341;47.606;7.576;2024-02-15T07:47:50;99129.28;;;10.22;66.77
10587;BME280;5341;47.606;7.576;2024-02-15T07:50:18;99129.28;;;10.22;66.15
10587;BME280;5341;47.606;7.576;2024-02-15T07:52:50;99118.44;;;10.23;67.00
10587;BME280;5341;47.606;7.576;2024-02-15T07:55:17;99106.72;;;10.24;66.90
10587;BME280;5341;47.606;7.576;2024-02-15T07:57:45;99111.91;;;10.26;66.54
10587;BME280;5341;47.606;7.576;2024-02-15T08:00:14;99117.06;;;10.27;67.33
10587;BME280;5341;47.606;7.576;2024-02-15T08:02:42;99124.91;;;10.29;67.19
10587;BME280;5341;47.606;7.576;2024-02-15T08:05:11;99120.41;;;10.30;67.12
10587;BME280;5341;47.606;7.576;2024-02-15T08:07:42;99114.72;;;10.33;67.18
10587;BME280;5341;47.606;7.576;2024-02-15T08:10:11;99113.56;;;10.35;67.35
10587;BME280;5341;47.606;7.576;2024-02-15T08:12:40;99102.50;;;10.38;67.11
10587;BME280;5341;47.606;7.576;2024-02-15T08:15:09;99102.16;;;10.41;67.64
10587;BME280;5341;47.606;7.576;2024-02-15T08:17:39;99093.97;;;10.43;67.31
10587;BME280;5341;47.606;7.576;2024-02-15T08:20:09;99102.47;;;10.46;67.15
10587;BME280;5341;47.606;7.576;2024-02-15T08:22:37;99095.94;;;10.49;67.64
10587;BME280;5341;47.606;7.576;2024-02-15T08:25:08;99094.59;;;10.53;67.98
10587;BME280;5341;47.606;7.576;2024-02-15T08:27:40;99084.41;;;10.56;67.73
10587;BME280;5341;47.606;7.576;2024-02-15T08:30:11;99096.59;;;10.59;67.63
10587;BME280;5341;47.606;7.576;2024-02-15T08:32:40;99085.69;;;10.61;66.95
10587;BME280;5341;47.606;7.576;2024-02-15T08:35:08;99088.84;;;10.64;67.50
10587;BME280;5341;47.606;7.576;2024-02-15T08:37:36;99090.38;;;10.67;66.84
10587;BME280;5341;47.606;7.576;2024-02-15T08:40:05;99083.84;;;10.69;66.74
10587;BME280;5341;47.606;7.576;2024-02-15T08:42:38;99075.28;;;10.74;66.34
10587;BME280;5341;47.606;7.576;2024-02-15T08:45:07;99074.06;;;10.76;66.74
10587;BME280;5341;47.606;7.576;2024-02-15T08:47:36;99073.75;;;10.79;66.44
10587;BME280;5341;47.606;7.576;2024-02-15T08:50:06;99074.22;;;10.83;65.96
10587;BME280;5341;47.606;7.576;2024-02-15T08:52:35;99069.53;;;10.85;66.13
10587;BME280;5341;47.606;7.576;2024-02-15T08:55:04;99076.19;;;10.89;66.58
10587;BME280;5341;47.606;7.576;2024-02-15T08:57:32;99076.69;;;10.93;65.94
10587;BME280;5341;47.606;7.576;2024-02-15T09:00:03;99073.66;;;10.96;66.24
10587;BME280;5341;47.606;7.576;2024-02-15T09:02:31;99075.13;;;10.98;66.46
10587;BME280;5341;47.606;7.576;2024-02-15T09:04:59;99076.44;;;11.02;66.53
10587;BME280;5341;47.606;7.576;2024-02-15T09:07:26;99074.25;;;11.06;65.86
10587;BME280;5341;47.606;7.576;2024-02-15T09:09:53;99073.06;;;11.08;66.17
10587;BME280;5341;47.606;7.576;2024-02-15T09:12:21;99071.69;;;11.12;65.92
10587;BME280;5341;47.606;7.576;2024-02-15T09:14:49;99064.97;;;11.17;66.25
10587;BME280;5341;47.606;7.576;2024-02-15T09:17:17;99060.09;;;11.20;65.36
10587;BME280;5341;47.606;7.576;2024-02-15T09:19:47;99062.41;;;11.23;65.77
10587;BME280;5341;47.606;7.576;2024-02-15T09:22:15;99060.22;;;11.27;65.59
10587;BME280;5341;47.606;7.576;2024-02-15T09:24:42;99065.22;;;11.30;65.01
10587;BME280;5341;47.606;7.576;2024-02-15T09:27:10;99062.34;;;11.31;65.30
10587;BME280;5341;47.606;7.576;2024-02-15T09:29:38;99059.13;;;11.36;65.37
10587;BME280;5341;47.606;7.576;2024-02-15T09:32:06;99056.94;;;11.39;64.93
10587;BME280;5341;47.606;7.576;2024-02-15T09:34:36;99057.22;;;11.44;64.53
10587;BME280;5341;47.606;7.576;2024-02-15T09:37:03;99060.38;;;11.48;64.50
10587;BME280;5341;47.606;7.576;2024-02-15T09:39:31;99063.53;;;11.52;64.77
10587;BME280;5341;47.606;7.576;2024-02-15T09:41:58;99061.13;;;11.57;64.14
10587;BME280;5341;47.606;7.576;2024-02-15T09:44:26;99064.28;;;11.60;64.80
10587;BME280;5341;47.606;7.576;2024-02-15T09:47:02;99060.06;;;11.66;64.46
10587;BME280;5341;47.606;7.576;2024-02-15T09:49:35;99057.47;;;11.72;64.59
10587;BME280;5341;47.606;7.576;2024-02-15T09:52:06;99049.91;;;11.76;64.22
10587;BME280;5341;47.606;7.576;2024-02-15T09:54:39;99051.69;;;11.84;63.90
10587;BME280;5341;47.606;7.576;2024-02-15T09:57:09;99052.00;;;11.89;64.19
10587;BME280;5341;47.606;7.576;2024-02-15T09:59:37;99050.41;;;11.94;63.63
10587;BME280;5341;47.606;7.576;2024-02-15T10:02:06;99055.06;;;12.00;64.22
10587;BME280;5341;47.606;7.576;2024-02-15T10:04:39;99039.88;;;12.08;63.90
10587;BME280;5341;47.606;7.576;2024-02-15T10:07:07;99044.31;;;12.15;63.42
10587;BME280;5341;47.606;7.576;2024-02-15T10:09:35;99032.00;;;12.21;63.35
10587;BME280;5341;47.606;7.576;2024-02-15T10:12:05;99034.78;;;12.27;62.79
10587;BME280;5341;47.606;7.576;2024-02-15T10:14:35;99024.13;;;12.34;62.64
10587;BME280;5341;47.606;7.576;2024-02-15T10:17:06;99026.72;;;12.42;62.85
10587;BME280;5341;47.606;7.576;2024-02-15T10:19:35;99019.59;;;12.49;62.57
10587;BME280;5341;47.606;7.576;2024-02-15T10:22:08;99022.34;;;12.56;62.53
10587;BME280;5341;47.606;7.576;2024-02-15T10:24:35;99020.59;;;12.63;62.53
10587;BME280;5341;47.606;7.576;2024-02-15T10:27:05;99012.41;;;12.71;62.13
10587;BME280;5341;47.606;7.576;2024-02-15T10:29:33;99007.94;;;12.78;62.30
10587;BME280;5341;47.606;7.576;2024-02-15T10:32:03;99005.97;;;12.87;62.03
10587;BME280;5341;47.606;7.576;2024-02-15T10:34:43;98995.09;;;12.95;61.81
10587;BME280;5341;47.606;7.576;2024-02-15T10:37:14;99010.47;;;13.01;61.31
10587;BME280;5341;47.606;7.576;2024-02-15T10:39:42;99006.00;;;13.08;61.28
10587;BME280;5341;47.606;7.576;2024-02-15T10:42:10;98994.47;;;13.14;60.89
10587;BME280;5341;47.606;7.576;2024-02-15T10:44:38;98983.16;;;13.19;60.72
10587;BME280;5341;47.606;7.576;2024-02-15T10:47:06;98979.72;;;13.25;60.42
10587;BME280;5341;47.606;7.576;2024-02-15T10:49:34;98982.66;;;13.30;60.50
10587;BME280;5341;47.606;7.576;2024-02-15T10:52:02;98980.22;;;13.35;60.03
10587;BME280;5341;47.606;7.576;2024-02-15T10:54:46;98976.53;;;13.43;60.05
10587;BME280;5341;47.606;7.576;2024-02-15T10:57:15;98974.13;;;13.48;60.30
10587;BME280;5341;47.606;7.576;2024-02-15T10:59:54;98977.66;;;13.55;60.29
10587;BME280;5341;47.606;7.576;2024-02-15T11:02:27;98968.84;;;13.61;60.22
10587;BME280;5341;47.606;7.576;2024-02-15T11:05:01;98970.09;;;13.65;60.05
10587;BME280;5341;47.606;7.576;2024-02-15T11:07:31;98957.75;;;13.71;59.47
10587;BME280;5341;47.606;7.576;2024-02-15T11:10:01;98960.66;;;13.76;59.24
10587;BME280;5341;47.606;7.576;2024-02-15T11:12:30;98952.84;;;13.81;59.06
10587;BME280;5341;47.606;7.576;2024-02-15T11:14:58;98945.22;;;13.85;58.79
10587;BME280;5341;47.606;7.576;2024-02-15T11:17:47;98941.69;;;13.91;58.21
10587;BME280;5341;47.606;7.576;2024-02-15T11:20:49;98934.09;;;13.94;57.85
10587;BME280;5341;47.606;7.576;2024-02-15T11:23:25;98931.00;;;13.97;58.13
10587;BME280;5341;47.606;7.576;2024-02-15T11:25:55;98931.00;;;14.04;58.25
10587;BME280;5341;47.606;7.576;2024-02-15T11:28:39;98927.75;;;14.08;58.03
10587;BME280;5341;47.606;7.576;2024-02-15T11:31:08;98925.25;;;14.14;57.71
10587;BME280;5341;47.606;7.576;2024-02-15T11:33:39;98926.53;;;14.18;57.91
10587;BME280;5341;47.606;7.576;2024-02-15T11:36:09;98918.47;;;14.24;57.69
10587;BME280;5341;47.606;7.576;2024-02-15T11:38:38;98926.75;;;14.29;57.71
10587;BME280;5341;47.606;7.576;2024-02-15T11:41:09;98912.09;;;14.32;57.66
10587;BME280;5341;47.606;7.576;2024-02-15T11:43:46;98914.16;;;14.36;57.54
10587;BME280;5341;47.606;7.576;2024-02-15T11:46:16;98915.63;;;14.39;57.22
10587;BME280;5341;47.606;7.576;2024-02-15T11:48:44;98912.72;;;14.41;57.04
10587;BME280;5341;47.606;7.576;2024-02-15T11:51:28;98904.09;;;14.45;56.48
10587;BME280;5341;47.606;7.576;2024-02-15T11:54:02;98895.59;;;14.48;56.33
10587;BME280;5341;47.606;7.576;2024-02-15T11:56:48;98891.28;;;14.54;56.36
10587;BME280;5341;47.606;7.576;2024-02-15T11:59:19;98890.88;;;14.57;56.38
10587;BME280;5341;47.606;7.576;2024-02-15T12:01:58;98883.22;;;14.60;56.28
10587;BME280;5341;47.606;7.576;2024-02-15T12:04:43;98883.41;;;14.65;56.09
10587;BME280;5341;47.606;7.576;2024-02-15T12:07:27;98879.09;;;14.71;56.02
10587;BME280;5341;47.606;7.576;2024-02-15T12:10:16;98876.38;;;14.78;55.89
10587;BME280;5341;47.606;7.576;2024-02-15T12:13:02;98877.44;;;14.83;56.08
10587;BME280;5341;47.606;7.576;2024-02-15T12:15:57;98877.41;;;14.90;55.88
10587;BME280;5341;47.606;7.576;2024-02-15T12:18:42;98872.25;;;14.95;55.59
10587;BME280;5341;47.606;7.576;2024-02-15T12:21:14;98878.66;;;15.01;55.47
10587;BME280;5341;47.606;7.576;2024-02-15T12:23:43;98869.75;;;15.07;55.16
10587;BME280;5341;47.606;7.576;2024-02-15T12:26:11;98862.91;;;15.11;54.98
10587;BME280;5341;47.606;7.576;2024-02-15T12:28:42;98853.41;;;15.15;54.86
10587;BME280;5341;47.606;7.576;2024-02-15T12:31:09;98850.28;;;15.18;54.58
10587;BME280;5341;47.606;7.576;2024-02-15T12:33:39;98851.72;;;15.20;54.60
10587;BME280;5341;47.606;7.576;2024-02-15T12:36:07;98839.69;;;15.23;54.17
10587;BME280;5341;47.606;7.576;2024-02-15T12:38:34;98837.44;;;15.27;54.16
10587;BME280;5341;47.606;7.576;2024-02-15T12:41:04;98829.75;;;15.30;54.32
10587;BME280;5341;47.606;7.576;2024-02-15T12:43:46;98826.84;;;15.32;54.18
10587;BME280;5341;47.606;7.576;2024-02-15T12:46:18;98820.78;;;15.36;54.02
10587;BME280;5341;47.606;7.576;2024-02-15T12:48:45;98811.50;;;15.39;54.45
10587;BME280;5341;47.606;7.576;2024-02-15T12:51:13;98804.84;;;15.41;54.56
10587;BME280;5341;47.606;7.576;2024-02-15T12:53:41;98816.00;;;15.45;54.27
10587;BME280;5341;47.606;7.576;2024-02-15T12:56:08;98810.41;;;15.46;54.47
10587;BME280;5341;47.606;7.576;2024-02-15T12:58:36;98804.59;;;15.49;54.40
10587;BME280;5341;47.606;7.576;2024-02-15T13:01:06;98802.53;;;15.51;54.16
10587;BME280;5341;47.606;7.576;2024-02-15T13:03:35;98807.69;;;15.53;54.48
10587;BME280;5341;47.606;7.576;2024-02-15T13:06:02;98801.06;;;15.56;54.66
10587;BME280;5341;47.606;7.576;2024-02-15T13:08:29;98797.31;;;15.57;54.43
10587;BME280;5341;47.606;7.576;2024-02-15T13:10:57;98798.75;;;15.59;54.00
10587;BME280;5341;47.606;7.576;2024-02-15T13:13:24;98788.59;;;15.61;53.95
10587;BME280;5341;47.606;7.576;2024-02-15T13:15:53;98783.03;;;15.63;53.91
10587;BME280;5341;47.606;7.576;2024-02-15T13:18:22;98786.34;;;15.65;53.66
10587;BME280;5341;47.606;7.576;2024-02-15T13:20:49;98775.31;;;15.66;53.45
10587;BME280;5341;47.606;7.576;2024-02-15T13:23:18;98787.75;;;15.67;53.22
10587;BME280;5341;47.606;7.576;2024-02-15T13:25:49;98782.97;;;15.69;53.20
10587;BME280;5341;47.606;7.576;2024-02-15T13:28:18;98781.09;;;15.70;53.09